createdAt,value
2023-04-16T00:00:39.148Z,17.65
2023-04-16T00:05:40.853Z,17.50
2023-04-16T00:10:44.051Z,20.00
2023-04-16T00:15:45.742Z,19.73
2023-04-16T00:20:47.910Z,18.85
2023-04-16T00:25:51.147Z,17.65
2023-04-16T00:30:52.959Z,19.58
2023-04-16T00:35:54.720Z,21.52
2023-04-16T00:40:57.737Z,19.40
2023-04-16T00:45:59.558Z,19.00
2023-04-16T00:51:01.406Z,18.20
2023-04-16T00:56:06.871Z,21.90
2023-04-16T01:01:08.789Z,16.98
2023-04-16T01:06:11.178Z,18.10
2023-04-16T01:11:14.831Z,18.98
2023-04-16T01:16:16.627Z,18.87
2023-04-16T01:21:19.740Z,19.37
2023-04-16T01:26:21.475Z,20.33
2023-04-16T01:31:23.179Z,20.27
2023-04-16T01:36:26.192Z,18.80
2023-04-16T01:41:27.838Z,21.27
2023-04-16T01:46:32.254Z,23.17
2023-04-16T01:51:35.260Z,21.33
2023-04-16T01:56:36.898Z,18.52
2023-04-16T02:01:38.780Z,20.08
2023-04-16T02:06:41.743Z,21.45
2023-04-16T02:11:43.406Z,19.45
2023-04-16T02:16:45.200Z,19.58
2023-04-16T02:21:48.351Z,19.17
2023-04-16T02:26:50.044Z,22.87
2023-04-16T02:31:51.724Z,23.05
2023-04-16T02:36:54.932Z,20.73
2023-04-16T02:41:56.639Z,18.77
2023-04-16T02:46:58.256Z,22.52
2023-04-16T02:52:01.331Z,24.40
2023-04-16T02:57:03.129Z,25.77
2023-04-16T03:02:04.909Z,24.87
2023-04-16T03:07:08.032Z,22.00
2023-04-16T03:12:09.685Z,22.52
2023-04-16T03:17:11.381Z,22.67
2023-04-16T03:22:14.504Z,26.40
2023-04-16T03:27:16.170Z,25.75
2023-04-16T03:32:18.336Z,25.77
2023-04-16T03:37:21.450Z,24.55
2023-04-16T03:42:23.156Z,28.02
2023-04-16T03:47:24.902Z,34.05
2023-04-16T03:52:27.938Z,24.83
2023-04-16T03:57:29.613Z,24.85
2023-04-16T04:02:31.375Z,25.73
2023-04-16T04:07:34.484Z,25.95
2023-04-16T04:12:36.152Z,23.87
2023-04-16T04:17:37.937Z,21.60
2023-04-16T04:22:41.040Z,22.73
2023-04-16T04:27:43.020Z,24.67
2023-04-16T04:32:44.754Z,29.90
2023-04-16T04:37:48.000Z,28.55
2023-04-16T04:42:49.657Z,23.45
2023-04-16T04:47:51.789Z,28.02
2023-04-16T04:52:54.780Z,24.52
2023-04-16T04:57:56.422Z,27.60
2023-04-16T05:02:58.202Z,22.87
2023-04-16T05:08:01.273Z,24.52
2023-04-16T05:13:03.053Z,27.67
2023-04-16T05:18:04.805Z,25.95
2023-04-16T05:23:07.936Z,21.50
2023-04-16T05:28:10.048Z,23.38
2023-04-16T05:33:11.732Z,24.95
2023-04-16T05:38:14.829Z,23.25
2023-04-16T05:43:16.609Z,23.15
2023-04-16T05:48:18.266Z,22.55
2023-04-16T05:53:21.812Z,25.37
2023-04-16T05:58:23.587Z,24.92
2023-04-16T06:03:25.369Z,30.73
2023-04-16T06:08:28.526Z,26.45
2023-04-16T06:13:30.243Z,21.83
2023-04-16T06:18:34.414Z,26.27
2023-04-16T06:23:37.589Z,24.55
2023-04-16T06:28:39.248Z,22.30
2023-04-16T06:33:40.936Z,25.08
2023-04-16T06:38:44.156Z,24.42
2023-04-16T06:43:45.980Z,25.35
2023-04-16T06:48:47.641Z,26.48
2023-04-16T06:53:50.676Z,25.80
2023-04-16T06:58:52.353Z,28.00
2023-04-16T07:03:54.461Z,27.35
2023-04-16T07:08:57.856Z,29.37
2023-04-16T07:13:59.583Z,30.80
2023-04-16T07:19:01.276Z,34.67
2023-04-16T07:24:04.659Z,29.37
2023-04-16T07:29:06.424Z,30.12
2023-04-16T07:34:08.110Z,30.48
2023-04-16T07:39:11.301Z,32.47
2023-04-16T07:44:13.186Z,30.58
2023-04-16T07:49:15.176Z,33.60
2023-04-16T07:54:18.265Z,31.37
2023-04-16T07:59:23.913Z,25.55
2023-04-16T08:04:26.574Z,22.62
2023-04-16T08:09:32.429Z,29.75
2023-04-16T08:14:34.321Z,20.20
2023-04-16T08:19:36.026Z,25.77
2023-04-16T08:24:39.170Z,27.50
2023-04-16T08:29:40.831Z,23.75
2023-04-16T08:34:42.966Z,26.50
2023-04-16T08:39:46.036Z,27.87
2023-04-16T08:44:49.486Z,29.95
2023-04-16T08:49:58.332Z,28.33
2023-04-16T08:55:05.482Z,26.77
2023-04-16T09:00:08.572Z,30.20
2023-04-16T09:05:13.055Z,29.02
2023-04-16T09:10:16.638Z,28.15
2023-04-16T09:15:20.807Z,28.10
2023-04-16T09:20:22.645Z,32.50
2023-04-16T09:25:25.807Z,26.62
2023-04-16T09:30:28.158Z,25.83
2023-04-16T09:35:45.472Z,28.05
2023-04-16T09:41:05.298Z,28.27
2023-04-16T09:46:08.183Z,23.83
2023-04-16T09:51:10.243Z,25.55
2023-04-16T09:56:26.332Z,25.83
2023-04-16T10:01:30.376Z,27.40
2023-04-16T10:06:32.082Z,22.42
2023-04-16T10:11:35.168Z,25.95
2023-04-16T10:16:37.149Z,24.33
2023-04-16T10:21:39.557Z,24.35
2023-04-16T10:26:43.897Z,30.15
2023-04-16T10:31:46.747Z,24.13
2023-04-16T10:36:50.123Z,23.42
2023-04-16T10:42:07.744Z,24.75
2023-04-16T10:47:13.526Z,25.65
2023-04-16T10:52:16.407Z,26.75
2023-04-16T10:57:20.334Z,25.52
2023-04-16T11:02:28.909Z,23.77
2023-04-16T11:07:33.710Z,26.52
2023-04-16T11:12:38.979Z,30.12
2023-04-16T11:17:43.472Z,25.35
2023-04-16T11:22:45.420Z,30.40
2023-04-16T11:27:48.678Z,28.70
2023-04-16T11:32:50.509Z,37.17
2023-04-16T11:37:56.740Z,35.50
2023-04-16T11:43:04.072Z,35.55
2023-04-16T11:48:06.321Z,37.55
2023-04-16T11:53:08.125Z,37.00
2023-04-16T11:58:13.941Z,40.40
2023-04-16T12:03:16.491Z,41.92
2023-04-16T12:08:29.240Z,36.88
2023-04-16T12:13:32.355Z,43.25
2023-04-16T12:18:34.046Z,40.63
2023-04-16T12:23:35.759Z,40.47
2023-04-16T12:28:38.882Z,42.70
2023-04-16T12:33:40.583Z,38.15
2023-04-16T12:38:42.296Z,38.08
2023-04-16T12:43:45.478Z,37.45
2023-04-16T12:48:47.309Z,45.97
2023-04-16T12:53:49.325Z,40.97
2023-04-16T12:58:52.640Z,46.92
2023-04-16T13:03:54.520Z,37.90
2023-04-16T13:08:56.406Z,42.83
2023-04-16T13:13:59.559Z,46.40
2023-04-16T13:19:01.370Z,49.72
2023-04-16T13:24:03.314Z,45.05
2023-04-16T13:29:06.489Z,37.70
2023-04-16T13:34:08.250Z,33.97
2023-04-16T13:39:10.112Z,33.55
2023-04-16T13:44:13.504Z,28.80
2023-04-16T13:49:15.422Z,26.20
2023-04-16T13:54:17.072Z,26.87
2023-04-16T13:59:20.173Z,30.60
2023-04-16T14:04:21.859Z,29.27
2023-04-16T14:09:23.589Z,32.90
2023-04-16T14:14:26.622Z,28.38
2023-04-16T14:19:28.469Z,29.63
2023-04-16T14:24:30.152Z,31.25
2023-04-16T14:29:33.330Z,28.30
2023-04-16T14:34:35.100Z,29.92
2023-04-16T14:39:36.962Z,30.88
2023-04-16T14:44:40.140Z,32.08
2023-04-16T14:49:41.991Z,31.30
2023-04-16T14:54:43.832Z,26.77
2023-04-16T14:59:46.938Z,29.85
2023-04-16T15:04:48.815Z,29.15
2023-04-16T15:09:51.056Z,31.17
2023-04-16T15:14:54.177Z,27.35
2023-04-16T15:19:55.894Z,27.02
2023-04-16T15:24:57.616Z,29.85
2023-04-16T15:30:00.845Z,33.45
2023-04-16T15:35:02.777Z,31.55
2023-04-16T15:40:05.443Z,35.30
2023-04-16T15:45:09.192Z,37.38
2023-04-16T15:50:11.010Z,35.63
2023-04-16T15:55:12.967Z,32.70
2023-04-16T16:00:16.411Z,29.37
2023-04-16T16:05:18.178Z,29.35
2023-04-16T16:10:20.049Z,29.98
2023-04-16T16:15:23.187Z,27.10
2023-04-16T16:20:25.342Z,23.42
2023-04-16T16:25:27.010Z,21.70
2023-04-16T16:30:30.086Z,27.60
2023-04-16T16:35:31.759Z,25.12
2023-04-16T16:40:33.457Z,21.85
2023-04-16T16:45:36.534Z,22.42
2023-04-16T16:50:38.309Z,19.80
2023-04-16T16:55:39.985Z,21.20
2023-04-16T17:00:43.076Z,20.33
2023-04-16T17:05:44.823Z,22.08
2023-04-16T17:10:46.559Z,22.73
2023-04-16T17:15:49.595Z,21.77
2023-04-16T17:20:51.642Z,25.75
2023-04-16T17:25:53.438Z,26.48
2023-04-16T17:30:56.402Z,27.05
2023-04-16T17:35:58.082Z,22.48
2023-04-16T17:40:59.996Z,20.30
2023-04-16T17:46:25.859Z,24.63
2023-04-16T17:51:27.694Z,19.87
2023-04-16T17:56:29.415Z,20.92
2023-04-16T18:01:32.638Z,22.70
2023-04-16T18:06:34.419Z,22.80
2023-04-16T18:11:36.170Z,21.83
2023-04-16T18:16:39.310Z,25.90
2023-04-16T18:21:41.242Z,28.08
2023-04-16T18:26:46.252Z,27.92
2023-04-16T18:31:50.361Z,31.95
2023-04-16T18:36:52.312Z,25.42
2023-04-16T18:41:54.063Z,32.30
2023-04-16T18:46:57.308Z,29.65
2023-04-16T18:51:59.065Z,29.08
2023-04-16T18:57:01.019Z,32.55
2023-04-16T19:02:04.336Z,34.45
2023-04-16T19:07:06.101Z,34.22
2023-04-16T19:12:07.870Z,39.28
2023-04-16T19:17:11.301Z,37.40
2023-04-16T19:22:15.273Z,37.78
2023-04-16T19:27:17.046Z,44.50
2023-04-16T19:32:20.209Z,43.65
2023-04-16T19:37:21.988Z,49.17
2023-04-16T19:42:23.779Z,44.53
2023-04-16T19:47:26.889Z,44.60
2023-04-16T19:52:28.600Z,53.85
2023-04-16T19:57:30.269Z,46.40
2023-04-16T20:02:33.366Z,43.30
2023-04-16T20:07:35.162Z,46.72
2023-04-16T20:12:36.848Z,57.13
2023-04-16T20:17:39.914Z,62.90
2023-04-16T20:22:42.196Z,59.83
2023-04-16T20:27:43.843Z,73.75
2023-04-16T20:32:46.905Z,66.15
2023-04-16T20:37:48.531Z,56.90
2023-04-16T20:42:50.507Z,67.37
2023-04-16T20:47:53.560Z,61.40
2023-04-16T20:52:55.367Z,63.25
2023-04-16T20:57:57.086Z,69.25
2023-04-16T21:03:00.324Z,69.00
2023-04-16T21:08:02.077Z,66.55
2023-04-16T21:13:03.758Z,59.55
2023-04-16T21:18:07.222Z,57.17
2023-04-16T21:23:08.954Z,53.65
2023-04-16T21:28:10.609Z,66.28
2023-04-16T21:33:13.627Z,51.65
2023-04-16T21:38:15.413Z,61.50
2023-04-16T21:43:17.318Z,55.20
2023-04-16T21:48:20.657Z,49.33
2023-04-16T21:53:22.437Z,49.63
2023-04-16T21:58:24.268Z,51.95
2023-04-16T22:03:27.449Z,42.35
2023-04-16T22:08:29.594Z,50.60
2023-04-16T22:13:31.611Z,50.88
2023-04-16T22:18:34.631Z,42.88
2023-04-16T22:23:36.313Z,44.33
2023-04-16T22:28:38.429Z,46.22
2023-04-16T22:33:43.638Z,46.78
2023-04-16T22:38:45.287Z,47.15
2023-04-16T22:43:47.028Z,47.33
2023-04-16T22:48:50.070Z,52.72
2023-04-16T22:53:51.928Z,46.85
2023-04-16T22:58:53.594Z,44.55
2023-04-16T23:03:56.701Z,51.03
2023-04-16T23:08:58.366Z,47.33
2023-04-16T23:14:00.060Z,53.58
2023-04-16T23:19:03.091Z,53.17
2023-04-16T23:24:05.082Z,55.72
2023-04-16T23:29:06.733Z,48.78
2023-04-16T23:34:09.898Z,51.35
2023-04-16T23:39:12.197Z,53.08
2023-04-16T23:44:14.088Z,57.95
2023-04-16T23:49:17.221Z,53.10
2023-04-16T23:54:18.974Z,62.78
2023-04-16T23:59:20.628Z,54.15
